Language: 


Des rapports , des résumés tant et plus, au choix de chacun....


Données statistiques de la station
Quotidien Rapport Janvier 11, 2018 Unités:  les deux    Anglais   Métrique
« Précédent Jour
Suivant Jour »
Quotidien Hebdomadaire Mensuel Annuel Actuel
  Haut: Bas: Moyen:
Température: TemperatureC °F /  -17.8 °C 2.3 °F /  -16.5 °C 4.4 °F /  -15.3 °C
Pt de rosée: DewpointC °F /  -17.8 °C 3.0 °F /  -16.1 °C 4.5 °F /  -15.3 °C
Humidité: Humidity % 98 % 97 %
Vitesse du vent: WindSpeedKMH mph /  0 km/h - 0.5 mph /  0.8 km/h
Rafales: WindSpeedGustKMH mph /  0 km/h - -
Vent:- - West
Pression: PressurehPa in /  0 hPa 1008.0 in /  34130.9 hPa -
Précipitation: 0.3 in /  7.62 mm    
Historical Graphs
 
 
Données statistiques pour Janvier 11, 2018
Heure Température Point de rosée Pression Vent Vitesse du vent Refales Humidité Pluie (taux horaire)
TemperatureC °F /  -17.8 °C DewpointC °F /  -17.8 °C PressurehPa in /  0 hPa Calm     Humidity % HourlyPrecipMM in /  0 mm
00:04 3.9 °F /  -15.6 °C 4.0 °F /  -15.6 °C 1009.0 in /  34164.7 hPa Calm     98 % 0.0 in /  0 mm
00:13 3.9 °F /  -15.6 °C 4.0 °F /  -15.6 °C 1009.0 in /  34164.7 hPa Calm     98 % 0.0 in /  0 mm
00:28 3.4 °F /  -15.9 °C 3.0 °F /  -16.1 °C 1009.0 in /  34164.7 hPa Calm     98 % 0.0 in /  0 mm
00:34 3.1 °F /  -16.1 °C 3.0 °F /  -16.1 °C 1009.0 in /  34164.7 hPa Calm     98 % 0.0 in /  0 mm
00:42 2.8 °F /  -16.2 °C 3.0 °F /  -16.1 °C 1009.0 in /  34164.7 hPa Calm     98 % 0.0 in /  0 mm
00:47 2.6 °F /  -16.3 °C 3.0 °F /  -16.1 °C 1009.0 in /  34164.7 hPa Calm     98 % 0.0 in /  0 mm
00:57 2.6 °F /  -16.3 °C 3.0 °F /  -16.1 °C 1009.0 in /  34164.7 hPa Calm     98 % 0.0 in /  0 mm
01:02 2.7 °F /  -16.3 °C 3.0 °F /  -16.1 °C 1009.0 in /  34164.7 hPa Calm     98 % 0.0 in /  0 mm
01:10 2.7 °F /  -16.3 °C 3.0 °F /  -16.1 °C 1009.0 in /  34164.7 hPa Calm     98 % 0.0 in /  0 mm
01:16 2.9 °F /  -16.2 °C 3.0 °F /  -16.1 °C 1009.0 in /  34164.7 hPa Calm   2.6 mph /  4.2 km/h 98 % 0.0 in /  0 mm
01:24 2.9 °F /  -16.2 °C 3.0 °F /  -16.1 °C 1009.0 in /  34164.7 hPa Calm   2.6 mph /  4.2 km/h 98 % 0.0 in /  0 mm
01:31 3.0 °F /  -16.1 °C 3.0 °F /  -16.1 °C 1009.0 in /  34164.7 hPa Calm     98 % 0.0 in /  0 mm
01:36 3.1 °F /  -16.1 °C 3.0 °F /  -16.1 °C 1009.0 in /  34164.7 hPa Calm     98 % 0.0 in /  0 mm
01:41 3.3 °F /  -15.9 °C 3.0 °F /  -16.1 °C 1009.0 in /  34164.7 hPa Calm     98 % 0.0 in /  0 mm
01:46 3.3 °F /  -15.9 °C 3.0 °F /  -16.1 °C 1009.0 in /  34164.7 hPa Calm     98 % 0.0 in /  0 mm
01:53 3.3 °F /  -15.9 °C 3.0 °F /  -16.1 °C 1009.0 in /  34164.7 hPa Calm     98 % 0.0 in /  0 mm
02:01 3.1 °F /  -16.1 °C 3.0 °F /  -16.1 °C 1009.0 in /  34164.7 hPa Calm     98 % 0.0 in /  0 mm
02:06 2.9 °F /  -16.2 °C 3.0 °F /  -16.1 °C 1009.0 in /  34164.7 hPa Calm     98 % 0.0 in /  0 mm
02:07 2.9 °F /  -16.2 °C 3.0 °F /  -16.1 °C 1009.0 in /  34164.7 hPa Calm     98 % 0.0 in /  0 mm
02:08 2.9 °F /  -16.2 °C 3.0 °F /  -16.1 °C 1009.0 in /  34164.7 hPa Calm     98 % 0.0 in /  0 mm
02:09 2.9 °F /  -16.2 °C 3.0 °F /  -16.1 °C 1009.0 in /  34164.7 hPa Calm     98 % 0.0 in /  0 mm
02:10 2.9 °F /  -16.2 °C 3.0 °F /  -16.1 °C 1009.0 in /  34164.7 hPa Calm     98 % 0.0 in /  0 mm
02:14 2.8 °F /  -16.2 °C 3.0 °F /  -16.1 °C 1008.0 in /  34130.9 hPa Calm     98 % 0.0 in /  0 mm
02:19 2.7 °F /  -16.3 °C 3.0 °F /  -16.1 °C 1008.0 in /  34130.9 hPa Calm     98 % 0.0 in /  0 mm
02:24 2.6 °F /  -16.3 °C 3.0 °F /  -16.1 °C 1008.0 in /  34130.9 hPa Calm     98 % 0.0 in /  0 mm
02:32 2.5 °F /  -16.4 °C 3.0 °F /  -16.1 °C 1009.0 in /  34164.7 hPa Calm     98 % 0.0 in /  0 mm
02:45 2.4 °F /  -16.4 °C 3.0 °F /  -16.1 °C 1009.0 in /  34164.7 hPa Calm     98 % 0.0 in /  0 mm
02:52 2.4 °F /  -16.4 °C 3.0 °F /  -16.1 °C 1009.0 in /  34164.7 hPa Calm     98 % 0.0 in /  0 mm
02:59 2.3 °F /  -16.5 °C 3.0 °F /  -16.1 °C 1009.0 in /  34164.7 hPa Calm     98 % 0.0 in /  0 mm
03:10 2.3 °F /  -16.5 °C 3.0 °F /  -16.1 °C 1009.0 in /  34164.7 hPa Calm     98 % 0.0 in /  0 mm
03:15 2.3 °F /  -16.5 °C 3.0 °F /  -16.1 °C 1009.0 in /  34164.7 hPa Calm     98 % 0.0 in /  0 mm
03:25 2.7 °F /  -16.3 °C 3.0 °F /  -16.1 °C 1009.0 in /  34164.7 hPa NNE 9.7 mph /  15.6 km/h 9.7 mph /  15.6 km/h 98 % 0.0 in /  0 mm
03:31 3.0 °F /  -16.1 °C 3.0 °F /  -16.1 °C 1010.0 in /  34198.6 hPa North 6.4 mph /  10.3 km/h 9.7 mph /  15.6 km/h 98 % 0.0 in /  0 mm
03:36 3.1 °F /  -16.1 °C 3.0 °F /  -16.1 °C 1010.0 in /  34198.6 hPa NNE 6.4 mph /  10.3 km/h 7.9 mph /  12.7 km/h 98 % 0.0 in /  0 mm
03:47 3.3 °F /  -15.9 °C 3.0 °F /  -16.1 °C 1010.0 in /  34198.6 hPa North 1.4 mph /  2.3 km/h 6.1 mph /  9.8 km/h 98 % 0.0 in /  0 mm
03:57 3.4 °F /  -15.9 °C 3.0 °F /  -16.1 °C 1010.0 in /  34198.6 hPa Calm   4.3 mph /  6.9 km/h 98 % 0.0 in /  0 mm
04:04 3.4 °F /  -15.9 °C 3.0 °F /  -16.1 °C 1010.0 in /  34198.6 hPa Calm   2.1 mph /  3.4 km/h 98 % 0.0 in /  0 mm
04:12 3.4 °F /  -15.9 °C 3.0 °F /  -16.1 °C 1010.0 in /  34198.6 hPa Calm     98 % 0.0 in /  0 mm
04:21 3.4 °F /  -15.9 °C 3.0 °F /  -16.1 °C 1010.0 in /  34198.6 hPa Calm     98 % 0.0 in /  0 mm
04:38 3.4 °F /  -15.9 °C 3.0 °F /  -16.1 °C 1010.0 in /  34198.6 hPa Calm     98 % 0.0 in /  0 mm
04:46 3.6 °F /  -15.8 °C 4.0 °F /  -15.6 °C 1010.0 in /  34198.6 hPa Calm     98 % 0.0 in /  0 mm
04:59 4.0 °F /  -15.6 °C 4.0 °F /  -15.6 °C 1010.0 in /  34198.6 hPa Calm     98 % 0.0 in /  0 mm
05:06 4.3 °F /  -15.4 °C 4.0 °F /  -15.6 °C 1010.0 in /  34198.6 hPa Calm     98 % 0.0 in /  0 mm
05:11 4.4 °F /  -15.3 °C 4.0 °F /  -15.6 °C 1010.0 in /  34198.6 hPa Calm     98 % 0.0 in /  0 mm
05:16 4.4 °F /  -15.3 °C 4.0 °F /  -15.6 °C 1010.0 in /  34198.6 hPa Calm     98 % 0.0 in /  0 mm
05:26 4.6 °F /  -15.2 °C 5.0 °F /  -15 °C 1011.1 in /  34235.8 hPa Calm   6.9 mph /  11.1 km/h 98 % 0.0 in /  0 mm
05:31 4.6 °F /  -15.2 °C 5.0 °F /  -15 °C 1011.1 in /  34235.8 hPa Calm   5.5 mph /  8.9 km/h 98 % 0.0 in /  0 mm
05:41 4.5 °F /  -15.3 °C 5.0 °F /  -15 °C 1011.1 in /  34235.8 hPa Calm     98 % 0.0 in /  0 mm
05:46 4.5 °F /  -15.3 °C 5.0 °F /  -15 °C 1011.1 in /  34235.8 hPa Calm     98 % 0.0 in /  0 mm
06:00 4.4 °F /  -15.3 °C 4.0 °F /  -15.6 °C 1011.1 in /  34235.8 hPa Calm   1.4 mph /  2.3 km/h 98 % 0.0 in /  0 mm
06:07 4.4 °F /  -15.3 °C 4.0 °F /  -15.6 °C 1011.1 in /  34235.8 hPa Calm   1.4 mph /  2.3 km/h 98 % 0.0 in /  0 mm
06:22 4.3 °F /  -15.4 °C 4.0 °F /  -15.6 °C 1010.0 in /  34198.6 hPa SSE 2.1 mph /  3.4 km/h 2.1 mph /  3.4 km/h 98 % 0.0 in /  0 mm
06:30 4.3 °F /  -15.4 °C 4.0 °F /  -15.6 °C 1010.0 in /  34198.6 hPa Calm   4.7 mph /  7.6 km/h 98 % 0.0 in /  0 mm
06:36 4.3 °F /  -15.4 °C 4.0 °F /  -15.6 °C 1010.0 in /  34198.6 hPa Calm     98 % 0.0 in /  0 mm
06:41 4.2 °F /  -15.4 °C 4.0 °F /  -15.6 °C 1011.1 in /  34235.8 hPa Calm     98 % 0.0 in /  0 mm
07:02 4.3 °F /  -15.4 °C 4.0 °F /  -15.6 °C 1011.1 in /  34235.8 hPa Calm     98 % 0.0 in /  0 mm
07:13 4.3 °F /  -15.4 °C 4.0 °F /  -15.6 °C 1012.1 in /  34269.7 hPa Calm     98 % 0.0 in /  0 mm
07:18 4.3 °F /  -15.4 °C 4.0 °F /  -15.6 °C 1012.1 in /  34269.7 hPa Calm     98 % 0.0 in /  0 mm
07:27 4.3 °F /  -15.4 °C 4.0 °F /  -15.6 °C 1012.1 in /  34269.7 hPa Calm     98 % 0.0 in /  0 mm
07:40 4.4 °F /  -15.3 °C 4.0 °F /  -15.6 °C 1013.1 in /  34303.6 hPa Calm     98 % 0.0 in /  0 mm
07:46 4.4 °F /  -15.3 °C 4.0 °F /  -15.6 °C 1013.1 in /  34303.6 hPa Calm     98 % 0.0 in /  0 mm
07:51 4.4 °F /  -15.3 °C 4.0 °F /  -15.6 °C 1013.1 in /  34303.6 hPa Calm     98 % 0.0 in /  0 mm
08:03 4.4 °F /  -15.3 °C 4.0 °F /  -15.6 °C 1013.1 in /  34303.6 hPa Calm     98 % 0.0 in /  0 mm
08:19 4.4 °F /  -15.3 °C 4.0 °F /  -15.6 °C 1012.1 in /  34269.7 hPa Calm     98 % 0.0 in /  0 mm
08:29 4.4 °F /  -15.3 °C 4.0 °F /  -15.6 °C 1013.1 in /  34303.6 hPa Calm   1.4 mph /  2.3 km/h 98 % 0.0 in /  0 mm
08:36 4.4 °F /  -15.3 °C 4.0 °F /  -15.6 °C 1013.1 in /  34303.6 hPa Calm     98 % 0.0 in /  0 mm
08:42 4.5 °F /  -15.3 °C 5.0 °F /  -15 °C 1013.1 in /  34303.6 hPa Calm   3.2 mph /  5.1 km/h 98 % 0.0 in /  0 mm
09:00 4.6 °F /  -15.2 °C 5.0 °F /  -15 °C 1014.1 in /  34337.4 hPa Calm     98 % 0.0 in /  0 mm
09:07 4.6 °F /  -15.2 °C 5.0 °F /  -15 °C 1014.1 in /  34337.4 hPa Calm   1.4 mph /  2.3 km/h 98 % 0.0 in /  0 mm
09:14 4.7 °F /  -15.2 °C 5.0 °F /  -15 °C 1014.1 in /  34337.4 hPa Calm   2.6 mph /  4.2 km/h 98 % 0.0 in /  0 mm
09:24 4.7 °F /  -15.2 °C 5.0 °F /  -15 °C 1014.1 in /  34337.4 hPa Calm     98 % 0.0 in /  0 mm
09:29 4.7 °F /  -15.2 °C 5.0 °F /  -15 °C 1014.1 in /  34337.4 hPa Calm   3.2 mph /  5.1 km/h 98 % 0.0 in /  0 mm
09:44 4.9 °F /  -15.1 °C 5.0 °F /  -15 °C 1014.1 in /  34337.4 hPa Calm     98 % 0.0 in /  0 mm
09:51 5.0 °F /  -15 °C 5.0 °F /  -15 °C 1014.1 in /  34337.4 hPa Calm     98 % 0.0 in /  0 mm
10:14 5.0 °F /  -15 °C 5.0 °F /  -15 °C 1015.1 in /  34371.3 hPa Calm   1.8 mph /  2.9 km/h 98 % 0.0 in /  0 mm
10:20 5.0 °F /  -15 °C 5.0 °F /  -15 °C 1015.1 in /  34371.3 hPa Calm     98 % 0.0 in /  0 mm
10:30 5.1 °F /  -14.9 °C 5.0 °F /  -15 °C 1014.1 in /  34337.4 hPa Calm   3.2 mph /  5.1 km/h 98 % 0.0 in /  0 mm
10:35 5.1 °F /  -14.9 °C 5.0 °F /  -15 °C 1014.1 in /  34337.4 hPa Calm   4.0 mph /  6.4 km/h 98 % 0.0 in /  0 mm
10:42 5.1 °F /  -14.9 °C 5.0 °F /  -15 °C 1015.1 in /  34371.3 hPa Calm   2.6 mph /  4.2 km/h 98 % 0.0 in /  0 mm
10:47 5.1 °F /  -14.9 °C 5.0 °F /  -15 °C 1015.1 in /  34371.3 hPa Calm   2.6 mph /  4.2 km/h 98 % 0.0 in /  0 mm
10:54 5.1 °F /  -14.9 °C 5.0 °F /  -15 °C 1015.1 in /  34371.3 hPa Calm     98 % 0.0 in /  0 mm
11:04 5.3 °F /  -14.8 °C 6.0 °F /  -14.4 °C 1015.1 in /  34371.3 hPa Calm     98 % 0.0 in /  0 mm
11:09 5.3 °F /  -14.8 °C 6.0 °F /  -14.4 °C 1015.1 in /  34371.3 hPa Calm   4.0 mph /  6.4 km/h 98 % 0.0 in /  0 mm
11:20 5.3 °F /  -14.8 °C 6.0 °F /  -14.4 °C 1015.1 in /  34371.3 hPa Calm     98 % 0.0 in /  0 mm
11:26 5.3 °F /  -14.8 °C 6.0 °F /  -14.4 °C 1016.1 in /  34405.1 hPa Calm   1.4 mph /  2.3 km/h 98 % 0.0 in /  0 mm
11:36 5.3 °F /  -14.8 °C 6.0 °F /  -14.4 °C 1016.1 in /  34405.1 hPa Calm   5.5 mph /  8.9 km/h 98 % 0.0 in /  0 mm
11:41 5.3 °F /  -14.8 °C 6.0 °F /  -14.4 °C 1016.1 in /  34405.1 hPa Calm   5.5 mph /  8.9 km/h 98 % 0.0 in /  0 mm
11:49 5.4 °F /  -14.8 °C 6.0 °F /  -14.4 °C 1016.1 in /  34405.1 hPa Calm     98 % 0.0 in /  0 mm
11:55 5.5 °F /  -14.7 °C 6.0 °F /  -14.4 °C 1016.1 in /  34405.1 hPa Calm   2.1 mph /  3.4 km/h 98 % 0.0 in /  0 mm
12:00 5.6 °F /  -14.7 °C 6.0 °F /  -14.4 °C 1016.1 in /  34405.1 hPa Calm   2.1 mph /  3.4 km/h 98 % 0.0 in /  0 mm
12:06 5.6 °F /  -14.7 °C 6.0 °F /  -14.4 °C 1016.1 in /  34405.1 hPa Calm     98 % 0.0 in /  0 mm
12:11 5.5 °F /  -14.7 °C 6.0 °F /  -14.4 °C 1016.8 in /  34428.8 hPa Calm     98 % 0.0 in /  0 mm
12:17 5.5 °F /  -14.7 °C 6.0 °F /  -14.4 °C 1016.8 in /  34428.8 hPa Calm     98 % 0.0 in /  0 mm
12:28 5.6 °F /  -14.7 °C 6.0 °F /  -14.4 °C 1016.8 in /  34428.8 hPa Calm   1.8 mph /  2.9 km/h 98 % 0.0 in /  0 mm
12:33 5.6 °F /  -14.7 °C 6.0 °F /  -14.4 °C 1016.8 in /  34428.8 hPa Calm   5.0 mph /  8 km/h 98 % 0.0 in /  0 mm
12:43 5.6 °F /  -14.7 °C 6.0 °F /  -14.4 °C 1016.8 in /  34428.8 hPa Calm   1.4 mph /  2.3 km/h 98 % 0.0 in /  0 mm
12:56 5.6 °F /  -14.7 °C 6.0 °F /  -14.4 °C 1016.8 in /  34428.8 hPa Calm   1.4 mph /  2.3 km/h 98 % 0.0 in /  0 mm
13:16 5.6 °F /  -14.7 °C 6.0 °F /  -14.4 °C 1016.8 in /  34428.8 hPa Calm     98 % 0.0 in /  0 mm
13:21 5.6 °F /  -14.7 °C 6.0 °F /  -14.4 °C 1016.8 in /  34428.8 hPa Calm   4.0 mph /  6.4 km/h 98 % 0.0 in /  0 mm
13:33 5.6 °F /  -14.7 °C 6.0 °F /  -14.4 °C 1016.8 in /  34428.8 hPa Calm     98 % 0.0 in /  0 mm
13:38 5.6 °F /  -14.7 °C 6.0 °F /  -14.4 °C 1016.8 in /  34428.8 hPa Calm     98 % 0.0 in /  0 mm
13:51 5.7 °F /  -14.6 °C 6.0 °F /  -14.4 °C 1016.8 in /  34428.8 hPa West 5.0 mph /  8 km/h 5.0 mph /  8 km/h 98 % 0.0 in /  0 mm
14:06 5.6 °F /  -14.7 °C 6.0 °F /  -14.4 °C 1016.1 in /  34405.1 hPa West 2.1 mph /  3.4 km/h 6.4 mph /  10.3 km/h 98 % 0.0 in /  0 mm
14:12 5.4 °F /  -14.8 °C 6.0 °F /  -14.4 °C 1016.8 in /  34428.8 hPa Calm   10.5 mph /  16.9 km/h 98 % 0.0 in /  0 mm
14:24 5.5 °F /  -14.7 °C 6.0 °F /  -14.4 °C 1016.8 in /  34428.8 hPa Calm   5.8 mph /  9.3 km/h 98 % 0.0 in /  0 mm
14:38 5.6 °F /  -14.7 °C 6.0 °F /  -14.4 °C 1016.8 in /  34428.8 hPa Calm     98 % 0.0 in /  0 mm
14:48 5.4 °F /  -14.8 °C 6.0 °F /  -14.4 °C 1016.8 in /  34428.8 hPa Calm   5.8 mph /  9.3 km/h 98 % 0.0 in /  0 mm
14:49 5.4 °F /  -14.8 °C 6.0 °F /  -14.4 °C 1016.8 in /  34428.8 hPa Calm   5.8 mph /  9.3 km/h 98 % 0.0 in /  0 mm
15:08 5.4 °F /  -14.8 °C 6.0 °F /  -14.4 °C 1018.2 in /  34476.3 hPa Calm   4.3 mph /  6.9 km/h 98 % 0.0 in /  0 mm
15:33 5.4 °F /  -14.8 °C 6.0 °F /  -14.4 °C 1018.2 in /  34476.3 hPa Calm   4.7 mph /  7.6 km/h 98 % 0.0 in /  0 mm
15:38 5.4 °F /  -14.8 °C 6.0 °F /  -14.4 °C 1018.2 in /  34476.3 hPa Calm   1.4 mph /  2.3 km/h 98 % 0.0 in /  0 mm
15:43 5.3 °F /  -14.8 °C 6.0 °F /  -14.4 °C 1018.2 in /  34476.3 hPa Calm   1.4 mph /  2.3 km/h 98 % 0.0 in /  0 mm
15:49 5.3 °F /  -14.8 °C 6.0 °F /  -14.4 °C 1018.2 in /  34476.3 hPa Calm     98 % 0.0 in /  0 mm
15:56 5.2 °F /  -14.9 °C 5.0 °F /  -15 °C 1018.2 in /  34476.3 hPa Calm   1.8 mph /  2.9 km/h 98 % 0.0 in /  0 mm
16:01 5.1 °F /  -14.9 °C 5.0 °F /  -15 °C 1018.8 in /  34496.6 hPa Calm   1.8 mph /  2.9 km/h 98 % 0.0 in /  0 mm
16:06 5.1 °F /  -14.9 °C 5.0 °F /  -15 °C 1018.8 in /  34496.6 hPa Calm   3.5 mph /  5.6 km/h 98 % 0.0 in /  0 mm
16:12 5.1 °F /  -14.9 °C 5.0 °F /  -15 °C 1018.8 in /  34496.6 hPa Calm   3.5 mph /  5.6 km/h 98 % 0.0 in /  0 mm
16:17 5.1 °F /  -14.9 °C 5.0 °F /  -15 °C 1018.8 in /  34496.6 hPa Calm     98 % 0.0 in /  0 mm
16:26 5.1 °F /  -14.9 °C 5.0 °F /  -15 °C 1018.8 in /  34496.6 hPa Calm   1.4 mph /  2.3 km/h 98 % 0.0 in /  0 mm
16:35 5.1 °F /  -14.9 °C 5.0 °F /  -15 °C 1018.8 in /  34496.6 hPa Calm   1.4 mph /  2.3 km/h 98 % 0.0 in /  0 mm
16:42 5.0 °F /  -15 °C 5.0 °F /  -15 °C 1018.8 in /  34496.6 hPa Calm     98 % 0.0 in /  0 mm
16:47 5.1 °F /  -14.9 °C 5.0 °F /  -15 °C 1018.2 in /  34476.3 hPa Calm     98 % 0.0 in /  0 mm
16:56 5.0 °F /  -15 °C 5.0 °F /  -15 °C 1018.8 in /  34496.6 hPa Calm   1.8 mph /  2.9 km/h 98 % 0.0 in /  0 mm
17:03 5.0 °F /  -15 °C 5.0 °F /  -15 °C 1018.8 in /  34496.6 hPa West 1.4 mph /  2.3 km/h 4.3 mph /  6.9 km/h 98 % 0.0 in /  0 mm
17:10 5.0 °F /  -15 °C 5.0 °F /  -15 °C 1018.8 in /  34496.6 hPa Calm   5.8 mph /  9.3 km/h 98 % 0.0 in /  0 mm
17:21 5.0 °F /  -15 °C 5.0 °F /  -15 °C 1018.2 in /  34476.3 hPa Calm   2.6 mph /  4.2 km/h 98 % 0.0 in /  0 mm
17:27 4.9 °F /  -15.1 °C 5.0 °F /  -15 °C 1018.8 in /  34496.6 hPa Calm   2.6 mph /  4.2 km/h 98 % 0.0 in /  0 mm
17:35 4.9 °F /  -15.1 °C 5.0 °F /  -15 °C 1018.8 in /  34496.6 hPa Calm   3.2 mph /  5.1 km/h 98 % 0.0 in /  0 mm
17:41 4.9 °F /  -15.1 °C 5.0 °F /  -15 °C 1018.8 in /  34496.6 hPa Calm   1.8 mph /  2.9 km/h 98 % 0.0 in /  0 mm
17:47 5.0 °F /  -15 °C 5.0 °F /  -15 °C 1018.8 in /  34496.6 hPa Calm     98 % 0.0 in /  0 mm
17:53 5.0 °F /  -15 °C 5.0 °F /  -15 °C 1018.8 in /  34496.6 hPa Calm     98 % 0.0 in /  0 mm
18:00 5.0 °F /  -15 °C 5.0 °F /  -15 °C 1019.9 in /  34533.8 hPa Calm     98 % 0.0 in /  0 mm
18:07 5.1 °F /  -14.9 °C 5.0 °F /  -15 °C 1019.9 in /  34533.8 hPa Calm     98 % 0.0 in /  0 mm
18:15 5.1 °F /  -14.9 °C 5.0 °F /  -15 °C 1019.9 in /  34533.8 hPa Calm     98 % 0.0 in /  0 mm
18:23 5.1 °F /  -14.9 °C 5.0 °F /  -15 °C 1019.9 in /  34533.8 hPa Calm     98 % 0.0 in /  0 mm
18:31 5.1 °F /  -14.9 °C 5.0 °F /  -15 °C 1019.9 in /  34533.8 hPa Calm     98 % 0.0 in /  0 mm
18:41 5.0 °F /  -15 °C 5.0 °F /  -15 °C 1019.9 in /  34533.8 hPa Calm   3.5 mph /  5.6 km/h 98 % 0.0 in /  0 mm
18:46 4.9 °F /  -15.1 °C 5.0 °F /  -15 °C 1020.9 in /  34567.7 hPa Calm   5.0 mph /  8 km/h 98 % 0.0 in /  0 mm
18:53 4.9 °F /  -15.1 °C 5.0 °F /  -15 °C 1020.9 in /  34567.7 hPa Calm   5.0 mph /  8 km/h 98 % 0.0 in /  0 mm
18:59 4.9 °F /  -15.1 °C 5.0 °F /  -15 °C 1020.9 in /  34567.7 hPa Calm   6.1 mph /  9.8 km/h 98 % 0.0 in /  0 mm
19:04 4.9 °F /  -15.1 °C 5.0 °F /  -15 °C 1020.9 in /  34567.7 hPa Calm   6.4 mph /  10.3 km/h 98 % 0.0 in /  0 mm
19:10 4.8 °F /  -15.1 °C 5.0 °F /  -15 °C 1020.9 in /  34567.7 hPa Calm   6.4 mph /  10.3 km/h 98 % 0.0 in /  0 mm
19:11 4.8 °F /  -15.1 °C 5.0 °F /  -15 °C 1020.9 in /  34567.7 hPa Calm   6.4 mph /  10.3 km/h 98 % 0.0 in /  0 mm
19:17 4.8 °F /  -15.1 °C 5.0 °F /  -15 °C 1020.9 in /  34567.7 hPa North 3.2 mph /  5.1 km/h 4.0 mph /  6.4 km/h 98 % 0.0 in /  0 mm
19:31 4.7 °F /  -15.2 °C 5.0 °F /  -15 °C 1021.9 in /  34601.5 hPa Calm   4.7 mph /  7.6 km/h 98 % 0.0 in /  0 mm
19:36 4.7 °F /  -15.2 °C 5.0 °F /  -15 °C 1021.9 in /  34601.5 hPa Calm   5.8 mph /  9.3 km/h 98 % 0.0 in /  0 mm
19:41 4.7 °F /  -15.2 °C 5.0 °F /  -15 °C 1021.9 in /  34601.5 hPa Calm   5.8 mph /  9.3 km/h 98 % 0.0 in /  0 mm
19:47 4.7 °F /  -15.2 °C 5.0 °F /  -15 °C 1019.9 in /  34533.8 hPa Calm   4.0 mph /  6.4 km/h 98 % 0.0 in /  0 mm
20:05 4.7 °F /  -15.2 °C 5.0 °F /  -15 °C 1020.9 in /  34567.7 hPa Calm   4.3 mph /  6.9 km/h 98 % 0.0 in /  0 mm
20:10 4.7 °F /  -15.2 °C 5.0 °F /  -15 °C 1020.9 in /  34567.7 hPa Calm   6.4 mph /  10.3 km/h 98 % 0.0 in /  0 mm
20:20 4.7 °F /  -15.2 °C 5.0 °F /  -15 °C 1020.9 in /  34567.7 hPa Calm   2.1 mph /  3.4 km/h 98 % 0.0 in /  0 mm
20:27 4.7 °F /  -15.2 °C 5.0 °F /  -15 °C 1021.9 in /  34601.5 hPa NE 5.5 mph /  8.9 km/h 6.9 mph /  11.1 km/h 98 % 0.0 in /  0 mm
20:34 4.6 °F /  -15.2 °C 5.0 °F /  -15 °C 1021.9 in /  34601.5 hPa North 4.7 mph /  7.6 km/h 6.1 mph /  9.8 km/h 98 % 0.0 in /  0 mm
20:42 4.6 °F /  -15.2 °C 5.0 °F /  -15 °C 1021.9 in /  34601.5 hPa North 1.8 mph /  2.9 km/h 9.0 mph /  14.5 km/h 98 % 0.0 in /  0 mm
20:47 4.7 °F /  -15.2 °C 5.0 °F /  -15 °C 1021.9 in /  34601.5 hPa North 5.0 mph /  8 km/h 9.0 mph /  14.5 km/h 98 % 0.0 in /  0 mm
20:57 4.7 °F /  -15.2 °C 5.0 °F /  -15 °C 1021.9 in /  34601.5 hPa Calm   7.9 mph /  12.7 km/h 98 % 0.0 in /  0 mm
21:02 4.7 °F /  -15.2 °C 5.0 °F /  -15 °C 1021.9 in /  34601.5 hPa NNW 7.6 mph /  12.2 km/h 9.0 mph /  14.5 km/h 98 % 0.0 in /  0 mm
21:08 4.7 °F /  -15.2 °C 5.0 °F /  -15 °C 1021.9 in /  34601.5 hPa Calm   10.1 mph /  16.3 km/h 98 % 0.0 in /  0 mm
21:18 4.5 °F /  -15.3 °C 5.0 °F /  -15 °C 1022.9 in /  34635.4 hPa North 5.8 mph /  9.3 km/h 11.6 mph /  18.7 km/h 98 % 0.0 in /  0 mm
21:52 4.3 °F /  -15.4 °C 4.0 °F /  -15.6 °C 1022.9 in /  34635.4 hPa Calm   6.4 mph /  10.3 km/h 98 % 0.0 in /  0 mm
21:57 4.3 °F /  -15.4 °C 4.0 °F /  -15.6 °C 1022.9 in /  34635.4 hPa Calm   6.4 mph /  10.3 km/h 98 % 0.0 in /  0 mm
22:02 4.2 °F /  -15.4 °C 4.0 °F /  -15.6 °C 1022.9 in /  34635.4 hPa Calm   2.6 mph /  4.2 km/h 98 % 0.0 in /  0 mm
22:14 4.1 °F /  -15.5 °C 4.0 °F /  -15.6 °C 1022.9 in /  34635.4 hPa Calm   5.5 mph /  8.9 km/h 98 % 0.0 in /  0 mm
22:26 4.2 °F /  -15.4 °C 4.0 °F /  -15.6 °C 1022.9 in /  34635.4 hPa Calm   5.5 mph /  8.9 km/h 98 % 0.0 in /  0 mm
22:35 4.1 °F /  -15.5 °C 4.0 °F /  -15.6 °C 1022.9 in /  34635.4 hPa Calm   10.1 mph /  16.3 km/h 98 % 0.0 in /  0 mm
22:38 4.1 °F /  -15.5 °C 4.0 °F /  -15.6 °C 1022.9 in /  34635.4 hPa NNW 5.8 mph /  9.3 km/h 9.3 mph /  15 km/h 98 % 0.0 in /  0 mm
22:48 4.2 °F /  -15.4 °C 4.0 °F /  -15.6 °C 1022.9 in /  34635.4 hPa North 4.0 mph /  6.4 km/h 7.9 mph /  12.7 km/h 98 % 0.0 in /  0 mm
22:57 4.2 °F /  -15.4 °C 4.0 °F /  -15.6 °C 1022.9 in /  34635.4 hPa Calm   5.5 mph /  8.9 km/h 98 % 0.0 in /  0 mm
23:07 4.2 °F /  -15.4 °C 4.0 °F /  -15.6 °C 1022.9 in /  34635.4 hPa Calm   5.8 mph /  9.3 km/h 98 % 0.0 in /  0 mm
23:09 4.2 °F /  -15.4 °C 4.0 °F /  -15.6 °C 1022.9 in /  34635.4 hPa Calm   5.8 mph /  9.3 km/h 98 % 0.0 in /  0 mm
23:14 4.2 °F /  -15.4 °C 4.0 °F /  -15.6 °C 1021.9 in /  34601.5 hPa Calm   1.8 mph /  2.9 km/h 98 % 0.0 in /  0 mm
23:22 4.2 °F /  -15.4 °C 4.0 °F /  -15.6 °C 1021.9 in /  34601.5 hPa Calm   5.8 mph /  9.3 km/h 98 % 0.0 in /  0 mm
23:28 4.2 °F /  -15.4 °C 4.0 °F /  -15.6 °C 1022.9 in /  34635.4 hPa NE 6.4 mph /  10.3 km/h 6.4 mph /  10.3 km/h 98 % 0.0 in /  0 mm
23:33 4.2 °F /  -15.4 °C 4.0 °F /  -15.6 °C 1022.9 in /  34635.4 hPa Calm   7.9 mph /  12.7 km/h 98 % 0.0 in /  0 mm
23:39 4.2 °F /  -15.4 °C 4.0 °F /  -15.6 °C 1022.9 in /  34635.4 hPa Calm   7.9 mph /  12.7 km/h 98 % 0.3 in /  7.62 mm
23:47 4.2 °F /  -15.4 °C 4.0 °F /  -15.6 °C 1022.9 in /  34635.4 hPa Calm   8.7 mph /  14 km/h 98 % 0.3 in /  7.62 mm
23:54 4.4 °F /  -15.3 °C 4.0 °F /  -15.6 °C 1022.9 in /  34635.4 hPa Calm   8.7 mph /  14 km/h 98 % 0.3 in /  7.62 mm
Le Gheer Warneton
Courtoisie de Weather Underground - 1.75 mb

Mise a jour : 25/02/2018 18:26:11
Généré par Cumulus 1.9.4 (1099)